KOLE/OLE METAR and TAF weather

Enter ICAO airport designator
Station Type Date Time Source
KOLE METAR 2022/08/13 11:35 UTC NOAA

KOLE 131135Z AUTO 00000KT 10SM CLR 10/08 A3021 RMK AO2


Station Type Date Time Source
KOLE Decoded METAR 2022/08/13 11:35 UTC NOAA

Olean Municipal, NY, United States (KOLE) 42-14N 078-22W
Aug 13, 2022 - 07:35 AM EDT / 2022.08.13 1135 UTC
Wind: Calm:0
Visibility: 10 mile(s):0
Sky conditions: clear
Temperature: 50 F (10 C)
Dew Point: 46 F (8 C)
Relative Humidity: 87%
Pressure (altimeter): 30.21 in. Hg (1023 hPa)
ob: KOLE 131135Z AUTO 00000KT 10SM CLR 10/08 A3021 RMK AO2
cycle: 11

Station Type Date Time Source
KOLE TAF UTC NOAA

Error!

Example: see airport list